Time;durP1;ratioP1;P1;durP2;ratioP2;P2;SDS_P1;SDS_P2;PMS_P1;PMS_P2;Temp;Humidity;BMP_temperature;BMP_pressure;BME280_temperature;BME280_humidity;BME280_pressure;Samples;Min_cycle;Max_cycle;Signal;HPM_P1;HPM_P2
2023/10/04 00:01:43;;;;;;;;;;;;;;;10.82;84.39;95948.91;5136631;27;1056;-57
2023/10/04 00:04:29;;;;;;;;;;;;;;;10.70;84.72;95953.59;5136902;27;1228;-57
2023/10/04 00:06:56;;;;;;;;;;;;;;;10.74;84.58;95946.94;5136802;27;961;-57
2023/10/04 00:09:22;;;;;;;;;;;;;;;10.68;85.26;95942.19;5136793;27;964;-57
2023/10/04 00:11:48;;;;;;;;;;;;;;;10.86;83.98;95939.59;5136584;27;1068;-57
2023/10/04 00:14:15;;;;;;;;;;;;;;;10.85;83.72;95934.41;5136652;27;968;-57
2023/10/04 00:16:41;;;;;;;;;;;;;;;10.66;84.22;95936.13;5136524;27;1051;-57
2023/10/04 00:19:08;;;;;;;;;;;;;;;10.59;84.66;95942.19;5136301;27;1893;-57
2023/10/04 00:21:34;;;;;;;;;;;;;;;10.51;84.86;95934.88;5136599;27;962;-57
2023/10/04 00:24:00;;;;;;;;;;;;;;;10.35;85.38;95927.41;5136416;27;937;-57
2023/10/04 00:26:26;;;;;;;;;;;;;;;10.35;85.82;95930.91;5136237;27;1047;-57
2023/10/04 00:28:52;;;;;;;;;;;;;;;10.38;86.01;95931.63;5136369;27;1028;-56
2023/10/04 00:31:18;;;;;;;;;;;;;;;10.47;85.45;95933.44;5136042;27;1099;-57
2023/10/04 00:33:44;;;;;;;;;;;;;;;10.56;85.04;95937.97;5136101;27;1146;-57
2023/10/04 00:36:13;;;;;;;;;;;;;;;10.58;84.91;95935.16;5136289;27;1200;-57
2023/10/04 00:38:39;;;;;;;;;;;;;;;10.62;84.65;95937.38;5135948;27;1902;-57
2023/10/04 00:41:07;;;;;;;;;;;;;;;10.69;83.68;95940.34;5136250;27;985;-57
2023/10/04 00:43:45;;;;;;;;;;;;;;;10.80;82.62;95939.34;5135794;27;1044;-57
2023/10/04 00:46:11;;;;;;;;;;;;;;;10.64;83.25;95939.91;5117894;27;1008;-57
2023/10/04 00:48:39;;;;;;;;;;;;;;;10.43;83.94;95940.06;5136017;27;948;-57
2023/10/04 00:51:06;;;;;;;;;;;;;;;10.27;84.58;95936.09;5136105;27;1047;-56
2023/10/04 00:53:33;;;;;;;;;;;;;;;10.19;84.67;95941.31;5135906;27;1050;-57
2023/10/04 00:55:59;;;;;;;;;;;;;;;10.18;84.67;95946.78;5135631;27;1087;-57
2023/10/04 00:58:26;;;;;;;;;;;;;;;10.23;84.31;95945.38;5135598;27;1993;-57
2023/10/04 01:00:54;;;;;;;;;;;;;;;10.18;84.39;95944.13;5135808;27;1190;-57
2023/10/04 01:03:24;;;;;;;;;;;;;;;10.02;84.94;95939.31;5135577;27;956;-57
2023/10/04 01:05:51;;;;;;;;;;;;;;;10.12;84.72;95941.00;5135728;27;1127;-57
2023/10/04 01:08:20;;;;;;;;;;;;;;;10.25;84.18;95938.06;5135423;27;1028;-57
2023/10/04 01:10:47;;;;;;;;;;;;;;;10.13;84.49;95941.84;5135858;27;1044;-57
2023/10/04 01:13:17;;;;;;;;;;;;;;;9.99;84.87;95937.75;5135522;27;1007;-57
2023/10/04 01:15:44;;;;;;;;;;;;;;;10.09;84.97;95948.44;5135299;27;1020;-57
2023/10/04 01:18:12;;;;;;;;;;;;;;;10.05;85.31;95942.53;5134957;27;1986;-58
2023/10/04 01:20:39;;;;;;;;;;;;;;;10.01;85.10;95948.31;5135202;27;1048;-57
2023/10/04 01:23:06;;;;;;;;;;;;;;;9.83;85.95;95940.97;5135097;27;1138;-57
2023/10/04 01:25:39;;;;;;;;;;;;;;;9.86;86.29;95943.34;5135327;27;1047;-57
2023/10/04 01:28:12;;;;;;;;;;;;;;;9.80;86.67;95943.06;5134880;27;1011;-57
2023/10/04 01:30:41;;;;;;;;;;;;;;;9.93;86.19;95938.31;5135363;27;1066;-57
2023/10/04 01:33:15;;;;;;;;;;;;;;;10.02;86.09;95939.31;5135303;27;961;-57
2023/10/04 01:35:41;;;;;;;;;;;;;;;9.97;86.22;95924.53;5134895;27;1079;-57
2023/10/04 01:38:08;;;;;;;;;;;;;;;10.02;85.90;95934.81;5135018;27;1901;-57
2023/10/04 01:40:39;;;;;;;;;;;;;;;9.99;85.72;95935.09;5135057;27;1175;-57
2023/10/04 01:43:17;;;;;;;;;;;;;;;9.79;86.62;95931.56;5134958;27;985;-57
2023/10/04 01:45:44;;;;;;;;;;;;;;;9.80;87.04;95940.41;5134774;27;1100;-57
2023/10/04 01:48:10;;;;;;;;;;;;;;;10.01;86.25;95945.63;5134568;27;1048;-57
2023/10/04 01:50:36;;;;;;;;;;;;;;;9.95;86.23;95947.03;5134955;27;1055;-57
2023/10/04 01:53:03;;;;;;;;;;;;;;;9.91;86.35;95954.47;5134596;27;1028;-57
2023/10/04 01:55:29;;;;;;;;;;;;;;;10.01;85.43;95946.47;5134534;27;1111;-58
2023/10/04 01:57:55;;;;;;;;;;;;;;;9.96;85.31;95951.41;5134791;27;1979;-58
2023/10/04 02:00:23;;;;;;;;;;;;;;;9.93;85.11;95952.50;5134380;27;1189;-57
2023/10/04 02:02:49;;;;;;;;;;;;;;;9.80;85.49;95949.25;5134447;27;1031;-57
2023/10/04 02:05:26;;;;;;;;;;;;;;;9.92;85.28;95947.28;5134657;27;1010;-57
2023/10/04 02:07:53;;;;;;;;;;;;;;;9.93;84.65;95951.66;5134783;27;1060;-57
2023/10/04 02:10:19;;;;;;;;;;;;;;;9.73;85.51;95943.63;5134320;27;1102;-57
2023/10/04 02:12:45;;;;;;;;;;;;;;;9.75;86.00;95946.13;5134599;27;1023;-57
2023/10/04 02:15:17;;;;;;;;;;;;;;;9.76;86.33;95947.84;5134306;27;1035;-57
2023/10/04 02:17:44;;;;;;;;;;;;;;;9.58;86.71;95943.16;5134523;27;1901;-57
2023/10/04 02:20:13;;;;;;;;;;;;;;;9.63;86.52;95945.41;5134208;28;1535;-57
2023/10/04 02:22:39;;;;;;;;;;;;;;;9.72;86.04;95949.09;5134603;28;1006;-57
2023/10/04 02:25:13;;;;;;;;;;;;;;;9.71;85.90;95945.59;5134569;28;1025;-57
2023/10/04 02:27:40;;;;;;;;;;;;;;;9.73;86.22;95948.97;5134535;28;1028;-57
2023/10/04 02:30:13;;;;;;;;;;;;;;;9.80;85.63;95946.56;5134394;28;1048;-57
2023/10/04 02:32:43;;;;;;;;;;;;;;;9.73;85.93;95950.75;5134251;28;1036;-57
2023/10/04 02:35:28;;;;;;;;;;;;;;;9.67;85.95;95945.97;5134164;28;1040;-57
2023/10/04 02:37:58;;;;;;;;;;;;;;;9.62;85.93;95951.75;5134219;28;1992;-57
2023/10/04 02:40:27;;;;;;;;;;;;;;;9.59;85.88;95949.31;5136509;27;973;-57
2023/10/04 02:42:56;;;;;;;;;;;;;;;9.70;85.26;95945.72;5138207;27;1032;-57
2023/10/04 02:45:24;;;;;;;;;;;;;;;9.68;85.01;95959.19;5138290;27;1276;-57
2023/10/04 02:47:52;;;;;;;;;;;;;;;9.58;85.14;95963.66;5138170;27;1158;-58
2023/10/04 02:50:23;;;;;;;;;;;;;;;9.51;84.66;95951.84;5119958;27;968;-57
2023/10/04 02:52:51;;;;;;;;;;;;;;;9.25;85.84;95949.59;5138044;27;1028;-57
2023/10/04 02:55:20;;;;;;;;;;;;;;;9.15;86.39;95952.22;5138168;27;975;-57
2023/10/04 02:57:49;;;;;;;;;;;;;;;9.21;86.00;95952.69;5138133;27;1913;-57
2023/10/04 03:00:19;;;;;;;;;;;;;;;9.34;86.41;95958.66;5137735;27;1125;-57
2023/10/04 03:02:46;;;;;;;;;;;;;;;9.37;86.12;95955.69;5137927;27;1091;-57
2023/10/04 03:05:18;;;;;;;;;;;;;;;9.35;86.13;95950.53;5137847;27;1063;-56
2023/10/04 03:07:44;;;;;;;;;;;;;;;9.31;86.15;95953.56;5137810;27;1035;-57
2023/10/04 03:10:11;;;;;;;;;;;;;;;9.24;86.36;95949.72;5137957;27;977;-56
2023/10/04 03:12:38;;;;;;;;;;;;;;;9.23;86.64;95948.06;5137725;27;1004;-55
2023/10/04 03:15:04;;;;;;;;;;;;;;;9.25;86.71;95957.63;5137658;27;1123;-56
2023/10/04 03:17:31;;;;;;;;;;;;;;;9.28;86.07;95951.19;5137467;27;1990;-55
2023/10/04 03:19:57;;;;;;;;;;;;;;;9.16;86.39;95956.59;5137566;27;1096;-55
2023/10/04 03:22:23;;;;;;;;;;;;;;;9.06;87.05;95960.19;5137422;27;1039;-56
2023/10/04 03:24:49;;;;;;;;;;;;;;;9.12;86.71;95962.31;5137482;27;1091;-55
2023/10/04 03:27:16;;;;;;;;;;;;;;;9.16;85.72;95961.94;5137678;27;965;-56
2023/10/04 03:29:43;;;;;;;;;;;;;;;9.03;85.89;95969.31;5137380;27;1024;-56
2023/10/04 03:32:09;;;;;;;;;;;;;;;9.01;85.92;95976.59;5137351;27;1103;-57
2023/10/04 03:34:35;;;;;;;;;;;;;;;8.94;86.22;95967.44;5137594;27;985;-56
2023/10/04 03:37:09;;;;;;;;;;;;;;;8.79;86.81;95965.06;5137716;27;1980;-56
2023/10/04 03:39:37;;;;;;;;;;;;;;;8.78;86.55;95963.41;5137407;27;1981;-56
2023/10/04 03:42:05;;;;;;;;;;;;;;;8.68;87.39;95966.97;5137118;27;1088;-56
2023/10/04 03:44:31;;;;;;;;;;;;;;;8.72;87.37;95963.06;5137064;27;1032;-55
2023/10/04 03:46:57;;;;;;;;;;;;;;;8.76;86.91;95964.50;5137038;27;1130;-55
2023/10/04 03:49:24;;;;;;;;;;;;;;;8.79;86.60;95965.06;5136902;27;1060;-55
2023/10/04 03:51:53;;;;;;;;;;;;;;;8.77;86.60;95972.38;5136783;27;1041;-55
2023/10/04 03:54:19;;;;;;;;;;;;;;;8.73;87.18;95968.28;5137023;27;1044;-56
2023/10/04 03:56:45;;;;;;;;;;;;;;;8.66;87.42;95961.75;5137043;27;1015;-56
2023/10/04 03:59:11;;;;;;;;;;;;;;;8.76;87.08;95965.38;5136723;27;1909;-56
2023/10/04 04:01:37;;;;;;;;;;;;;;;8.83;86.45;95963.00;5137060;27;1027;-56
2023/10/04 04:04:04;;;;;;;;;;;;;;;8.84;86.09;95963.84;5136934;27;1054;-56
2023/10/04 04:06:30;;;;;;;;;;;;;;;8.78;86.76;95963.41;5136852;27;961;-56
2023/10/04 04:08:58;;;;;;;;;;;;;;;8.91;86.08;95965.00;5136759;27;1036;-56
2023/10/04 04:11:24;;;;;;;;;;;;;;;8.97;85.92;95968.03;5136799;27;965;-56
2023/10/04 04:13:50;;;;;;;;;;;;;;;8.89;85.76;95970.47;5136760;27;1051;-56
2023/10/04 04:16:17;;;;;;;;;;;;;;;8.85;85.70;95962.88;5136395;27;1111;-57
2023/10/04 04:18:45;;;;;;;;;;;;;;;8.77;86.11;95972.38;5136135;27;1982;-57
2023/10/04 04:21:11;;;;;;;;;;;;;;;8.74;85.99;95969.13;5136592;27;1042;-56
2023/10/04 04:23:37;;;;;;;;;;;;;;;8.72;85.90;95969.22;5136660;27;1038;-56
2023/10/04 04:26:07;;;;;;;;;;;;;;;8.73;85.67;95976.28;5136585;27;1008;-56
2023/10/04 04:28:35;;;;;;;;;;;;;;;8.64;85.84;95977.03;5118057;27;966;-56
2023/10/04 04:31:05;;;;;;;;;;;;;;;8.64;85.51;95978.88;5118049;27;1044;-55
2023/10/04 04:33:31;;;;;;;;;;;;;;;8.59;85.24;95980.09;5136411;27;990;-56
2023/10/04 04:36:05;;;;;;;;;;;;;;;8.57;85.32;95970.53;5136398;27;1036;-56
2023/10/04 04:38:37;;;;;;;;;;;;;;;8.34;86.43;95975.94;5136333;27;1989;-55
2023/10/04 04:41:06;;;;;;;;;;;;;;;8.33;86.17;95976.06;5136000;27;1079;-56
2023/10/04 04:45:58;;;;;;;;;;;;;;;8.47;86.57;95980.28;5135796;27;962;-56
2023/10/04 04:48:25;;;;;;;;;;;;;;;8.52;86.03;95986.09;5135779;27;1084;-56
2023/10/04 04:50:54;;;;;;;;;;;;;;;8.49;86.07;95991.66;5135802;27;1033;-56
2023/10/04 04:53:22;;;;;;;;;;;;;;;8.49;86.36;95989.81;5135611;27;1017;-56
2023/10/04 04:55:49;;;;;;;;;;;;;;;8.42;86.45;95988.63;5135978;27;972;-56
2023/10/04 04:58:18;;;;;;;;;;;;;;;8.24;88.33;95995.47;5135457;27;1925;-56
2023/10/04 05:00:44;;;;;;;;;;;;;;;8.29;88.45;95998.59;5135861;27;959;-55
2023/10/04 05:03:11;;;;;;;;;;;;;;;8.37;88.56;95993.50;5134881;27;1127;-56
2023/10/04 05:05:38;;;;;;;;;;;;;;;8.52;88.61;95988.75;5135802;27;1028;-57
2023/10/04 05:08:04;;;;;;;;;;;;;;;8.71;88.41;95996.88;5135651;27;968;-57
2023/10/04 05:10:37;;;;;;;;;;;;;;;8.88;88.42;95995.47;5135645;27;1055;-57
2023/10/04 05:13:04;;;;;;;;;;;;;;;9.15;87.32;95999.44;5135638;27;980;-57
2023/10/04 05:15:34;;;;;;;;;;;;;;;9.30;87.59;95994.59;5135580;27;1027;-57
2023/10/04 05:18:15;;;;;;;;;;;;;;;9.42;86.83;95992.69;5135152;27;1922;-56
2023/10/04 05:20:53;;;;;;;;;;;;;;;9.52;86.63;95994.44;5135428;27;1020;-57
2023/10/04 05:23:21;;;;;;;;;;;;;;;9.60;86.99;95996.41;5135186;27;997;-57
2023/10/04 05:25:47;;;;;;;;;;;;;;;9.69;86.90;96000.94;5135062;27;954;-57
2023/10/04 05:28:14;;;;;;;;;;;;;;;9.98;86.41;96000.19;5134997;27;1040;-57
2023/10/04 05:30:44;;;;;;;;;;;;;;;10.21;86.54;95994.63;5135244;27;1027;-57
2023/10/04 05:33:13;;;;;;;;;;;;;;;10.34;86.24;96000.59;5134931;27;1270;-57
2023/10/04 05:35:42;;;;;;;;;;;;;;;10.74;84.79;96008.47;5135243;27;959;-57
2023/10/04 05:38:11;;;;;;;;;;;;;;;11.06;83.40;96009.13;5134719;27;1898;-57
2023/10/04 05:40:39;;;;;;;;;;;;;;;11.18;82.71;96009.84;5135128;27;969;-57
2023/10/04 05:43:06;;;;;;;;;;;;;;;11.99;79.86;96014.66;5134800;27;1091;-57
2023/10/04 05:45:32;;;;;;;;;;;;;;;13.66;72.86;96018.56;5134966;27;1021;-57
2023/10/04 05:47:59;;;;;;;;;;;;;;;15.00;66.34;96020.53;5134846;27;952;-57
2023/10/04 05:50:26;;;;;;;;;;;;;;;15.79;62.11;96013.59;5116500;27;1052;-57
2023/10/04 05:52:53;;;;;;;;;;;;;;;17.04;57.76;96028.22;5134601;27;1148;-57
2023/10/04 05:55:20;;;;;;;;;;;;;;;18.33;53.71;96031.72;5134524;27;1977;-58
2023/10/04 05:57:47;;;;;;;;;;;;;;;19.60;49.28;96041.28;5134518;27;1991;-57
2023/10/04 06:00:33;;;;;;;;;;;;;;;20.53;46.73;96050.06;5134494;27;1161;-57
2023/10/04 06:03:04;;;;;;;;;;;;;;;20.94;44.00;96051.91;5134531;27;1028;-58
2023/10/04 06:05:33;;;;;;;;;;;;;;;21.74;42.98;96051.22;5134393;27;1016;-57
2023/10/04 06:08:03;;;;;;;;;;;;;;;21.54;43.03;96052.06;5134746;27;1048;-57
2023/10/04 06:10:29;;;;;;;;;;;;;;;20.99;43.89;96046.69;5134402;27;1095;-58
2023/10/04 06:12:56;;;;;;;;;;;;;;;20.20;45.44;96039.00;5134612;27;961;-57
2023/10/04 06:15:24;;;;;;;;;;;;;;;18.41;50.32;96028.91;5134218;27;1013;-57
2023/10/04 06:17:53;;;;;;;;;;;;;;;17.04;54.51;96020.94;5134601;27;1987;-57
2023/10/04 06:20:23;;;;;;;;;;;;;;;16.02;59.38;96012.84;5134029;28;1222;-56
2023/10/04 06:22:53;;;;;;;;;;;;;;;15.79;59.81;96021.69;5134793;28;1019;-57
2023/10/04 06:25:20;;;;;;;;;;;;;;;15.36;62.27;96018.34;5134378;28;969;-57
2023/10/04 06:27:47;;;;;;;;;;;;;;;15.49;62.28;96027.78;5134330;28;962;-56
2023/10/04 06:30:13;;;;;;;;;;;;;;;15.53;61.67;96021.03;5134122;28;1020;-57
2023/10/04 06:32:39;;;;;;;;;;;;;;;15.59;62.43;96023.03;5134366;28;1043;-56
2023/10/04 06:35:06;;;;;;;;;;;;;;;15.76;61.10;96022.06;5134162;28;1111;-57
2023/10/04 06:37:32;;;;;;;;;;;;;;;15.79;61.32;96021.69;5133979;28;1914;-54
2023/10/04 06:39:58;;;;;;;;;;;;;;;15.60;64.38;96022.88;5134145;28;1028;-54
2023/10/04 06:42:24;;;;;;;;;;;;;;;15.70;61.75;96022.69;5134315;28;1020;-54
2023/10/04 06:44:50;;;;;;;;;;;;;;;15.60;62.12;96028.25;5134141;28;1044;-55
2023/10/04 06:47:17;;;;;;;;;;;;;;;15.99;62.74;96022.16;5133897;28;1111;-55
2023/10/04 06:49:43;;;;;;;;;;;;;;;15.87;61.18;96020.00;5134347;28;1040;-56
2023/10/04 06:52:09;;;;;;;;;;;;;;;16.21;61.07;96022.41;5134237;28;976;-56
2023/10/04 06:54:36;;;;;;;;;;;;;;;16.38;61.08;96021.31;5134244;28;972;-56
2023/10/04 06:57:03;;;;;;;;;;;;;;;16.32;60.96;96022.00;5134273;28;1026;-55
2023/10/04 06:59:29;;;;;;;;;;;;;;;16.52;60.41;96017.03;5134023;28;1914;-55
2023/10/04 07:01:55;;;;;;;;;;;;;;;16.86;60.05;96025.81;5134391;28;981;-56
2023/10/04 07:04:21;;;;;;;;;;;;;;;17.00;60.37;96019.63;5115920;28;1031;-56
2023/10/04 07:06:47;;;;;;;;;;;;;;;17.01;61.56;96020.47;5133908;28;1955;-56
2023/10/04 07:09:14;;;;;;;;;;;;;;;17.21;58.69;96024.38;5133927;28;969;-56
2023/10/04 07:11:40;;;;;;;;;;;;;;;17.40;59.80;96016.78;5121980;27;2464;-56
2023/10/04 07:14:06;;;;;;;;;;;;;;;17.30;59.45;96025.13;5113297;28;1029;-56
2023/10/04 07:16:32;;;;;;;;;;;;;;;17.56;58.69;96019.31;5113083;28;1041;-56
2023/10/04 07:18:59;;;;;;;;;;;;;;;17.80;59.00;96015.56;5113171;28;1906;-56
2023/10/04 07:21:26;;;;;;;;;;;;;;;18.09;57.05;96020.16;5113134;28;1044;-56
2023/10/04 07:23:52;;;;;;;;;;;;;;;18.05;57.85;96018.03;5113536;28;1025;-56
2023/10/04 07:26:19;;;;;;;;;;;;;;;18.01;57.78;96014.84;5115497;28;974;-55
2023/10/04 07:28:46;;;;;;;;;;;;;;;18.51;56.90;96020.50;5116884;28;1012;-55
2023/10/04 07:31:12;;;;;;;;;;;;;;;18.71;55.75;96023.44;5116964;28;1028;-56
2023/10/04 07:33:38;;;;;;;;;;;;;;;18.74;56.46;96023.06;5117067;28;1049;-55
2023/10/04 07:36:04;;;;;;;;;;;;;;;18.86;55.88;96021.56;5116931;28;1024;-55
2023/10/04 07:38:30;;;;;;;;;;;;;;;18.56;57.35;96018.06;5116533;28;1905;-56
2023/10/04 07:40:56;;;;;;;;;;;;;;;18.80;55.80;96013.31;5117660;27;2571;-56
2023/10/04 07:43:23;;;;;;;;;;;;;;;18.92;56.18;96018.09;5116533;28;961;-56
2023/10/04 07:45:49;;;;;;;;;;;;;;;18.90;56.40;96017.44;5116731;28;1041;-56
2023/10/04 07:48:17;;;;;;;;;;;;;;;19.08;54.84;96013.44;5116409;28;1036;-56
2023/10/04 07:50:43;;;;;;;;;;;;;;;19.10;55.27;96006.81;5116436;28;1080;-56
2023/10/04 07:53:09;;;;;;;;;;;;;;;19.22;55.71;96000.88;5116684;28;1036;-56
2023/10/04 07:55:36;;;;;;;;;;;;;;;19.38;55.25;95997.88;5116449;28;1034;-56
2023/10/04 07:58:06;;;;;;;;;;;;;;;19.70;54.24;95995.63;5116408;28;1910;-56
2023/10/04 08:00:34;;;;;;;;;;;;;;;19.94;53.19;95990.81;5136729;27;1044;-56
2023/10/04 08:03:01;;;;;;;;;;;;;;;19.92;53.01;95999.16;5137046;27;1007;-56
2023/10/04 08:05:29;;;;;;;;;;;;;;;20.08;52.44;95995.28;5136663;27;1060;-56
2023/10/04 08:07:56;;;;;;;;;;;;;;;20.22;51.59;95994.34;5136529;27;1099;-56
2023/10/04 08:10:25;;;;;;;;;;;;;;;20.41;51.54;95992.75;5118152;27;2544;-56
2023/10/04 08:12:53;;;;;;;;;;;;;;;20.42;51.80;95988.97;5115977;28;1083;-56
2023/10/04 08:15:19;;;;;;;;;;;;;;;20.54;52.26;95989.22;5116106;28;1015;-56
2023/10/04 08:17:51;;;;;;;;;;;;;;;20.69;50.62;95993.72;5116075;28;1909;-56
2023/10/04 08:20:17;;;;;;;;;;;;;;;20.71;50.92;95981.59;5115688;28;1361;-56
2023/10/04 08:22:44;;;;;;;;;;;;;;;20.76;50.90;95986.44;5115913;28;961;-56
2023/10/04 08:25:12;;;;;;;;;;;;;;;20.90;50.35;95974.53;5097713;28;986;-55
2023/10/04 08:27:39;;;;;;;;;;;;;;;21.05;51.03;95977.06;5115624;28;1103;-56
2023/10/04 08:30:06;;;;;;;;;;;;;;;20.99;50.18;95978.75;5116005;28;1036;-56
2023/10/04 08:32:33;;;;;;;;;;;;;;;21.15;49.57;95969.38;5115805;28;966;-56
2023/10/04 08:34:59;;;;;;;;;;;;;;;21.33;49.37;95973.34;5115669;28;1067;-56
2023/10/04 08:37:27;;;;;;;;;;;;;;;21.20;49.82;95968.72;5115757;28;993;-56
2023/10/04 08:39:53;;;;;;;;;;;;;;;21.14;49.29;95969.56;5115409;28;1905;-56
2023/10/04 08:42:19;;;;;;;;;;;;;;;21.33;49.09;95966.03;5115343;28;1027;-56
2023/10/04 08:44:48;;;;;;;;;;;;;;;21.55;47.96;95971.28;5115631;28;953;-56
2023/10/04 08:47:16;;;;;;;;;;;;;;;21.73;47.71;95957.03;5115178;28;1109;-56
2023/10/04 08:49:50;;;;;;;;;;;;;;;21.88;47.60;95954.91;5115437;28;971;-56
2023/10/04 08:52:20;;;;;;;;;;;;;;;21.80;46.54;95957.88;5115182;28;1084;-56
2023/10/04 08:54:51;;;;;;;;;;;;;;;21.86;47.65;95948.03;5115150;28;1134;-56
2023/10/04 08:57:20;;;;;;;;;;;;;;;22.09;47.38;95945.66;5115073;28;1036;-55
2023/10/04 08:59:47;;;;;;;;;;;;;;;22.20;45.92;95952.31;5129105;27;1930;-55
2023/10/04 09:02:14;;;;;;;;;;;;;;;22.05;46.49;95944.41;5135505;27;1020;-55
2023/10/04 09:04:41;;;;;;;;;;;;;;;22.20;46.47;95953.16;5135651;27;1031;-56
2023/10/04 09:07:11;;;;;;;;;;;;;;;22.47;45.55;95952.25;5135473;27;995;-56
2023/10/04 09:09:40;;;;;;;;;;;;;;;22.69;45.55;95952.75;5135838;27;1021;-56
2023/10/04 09:12:09;;;;;;;;;;;;;;;22.82;44.68;95955.41;5135690;27;1048;-57
2023/10/04 09:14:40;;;;;;;;;;;;;;;23.03;44.55;95946.13;5135218;27;1110;-56
2023/10/04 09:17:13;;;;;;;;;;;;;;;23.13;44.72;95956.53;5135451;27;1040;-56
2023/10/04 09:19:41;;;;;;;;;;;;;;;23.15;44.83;95948.97;5135111;27;1905;-57
2023/10/04 09:22:08;;;;;;;;;;;;;;;23.05;45.17;95949.47;5135201;27;1938;-56
2023/10/04 09:24:53;;;;;;;;;;;;;;;23.17;44.52;95938.66;5135330;27;939;-56
2023/10/04 09:27:21;;;;;;;;;;;;;;;23.24;43.84;95936.72;5135298;27;995;-56
2023/10/04 09:29:48;;;;;;;;;;;;;;;23.39;44.83;95939.09;5135059;27;1107;-56
2023/10/04 09:32:33;;;;;;;;;;;;;;;23.48;44.54;95934.22;5134905;27;1039;-56
2023/10/04 09:34:59;;;;;;;;;;;;;;;23.54;44.19;95933.31;5135233;27;948;-57
2023/10/04 09:37:25;;;;;;;;;;;;;;;23.39;43.91;95931.78;5135018;27;1024;-57
2023/10/04 09:40:05;;;;;;;;;;;;;;;23.69;43.86;95927.50;5134948;27;1977;-56
2023/10/04 09:42:30;;;;;;;;;;;;;;;23.84;42.87;95928.03;5135090;27;963;-56
2023/10/04 09:45:09;;;;;;;;;;;;;;;23.68;43.07;95928.59;5134718;27;1091;-56
2023/10/04 09:47:38;;;;;;;;;;;;;;;23.57;42.38;95925.53;5135097;27;953;-56
2023/10/04 09:50:12;;;;;;;;;;;;;;;23.83;43.07;95925.50;5134691;27;964;-56
2023/10/04 09:52:38;;;;;;;;;;;;;;;23.94;43.13;95920.16;5135035;27;1025;-57
2023/10/04 09:55:08;;;;;;;;;;;;;;;24.13;42.99;95917.41;5134667;27;993;-57
2023/10/04 09:57:35;;;;;;;;;;;;;;;24.24;41.69;95913.09;5134803;27;1044;-58
2023/10/04 10:00:05;;;;;;;;;;;;;;;24.21;42.38;95908.06;5134634;27;1913;-57
2023/10/04 10:02:34;;;;;;;;;;;;;;;24.24;42.56;95907.63;5134827;27;986;-57
2023/10/04 10:05:01;;;;;;;;;;;;;;;24.17;42.62;95905.00;5134623;27;1054;-57
2023/10/04 10:07:32;;;;;;;;;;;;;;;24.36;42.04;95908.53;5134375;27;1016;-56
2023/10/04 10:10:04;;;;;;;;;;;;;;;24.55;41.84;95898.44;5134401;27;1060;-57
2023/10/04 10:12:31;;;;;;;;;;;;;;;24.73;42.26;95903.03;5134550;27;925;-57
2023/10/04 10:15:00;;;;;;;;;;;;;;;24.78;42.03;95899.63;5134697;27;1023;-59
2023/10/04 10:17:26;;;;;;;;;;;;;;;24.99;41.44;95899.06;5134656;27;1051;-58
2023/10/04 10:19:52;;;;;;;;;;;;;;;25.07;40.51;95896.00;5134095;27;1910;-58
2023/10/04 10:22:19;;;;;;;;;;;;;;;25.12;40.15;95890.66;5134480;28;1033;-58
2023/10/04 10:24:48;;;;;;;;;;;;;;;25.20;41.29;95888.66;5115958;28;917;-58
2023/10/04 10:27:15;;;;;;;;;;;;;;;25.07;39.80;95884.22;5134556;28;1007;-57
2023/10/04 10:29:42;;;;;;;;;;;;;;;24.88;40.04;95878.00;5134505;28;1015;-58
2023/10/04 10:32:14;;;;;;;;;;;;;;;25.03;40.97;95881.13;5134304;28;1029;-59
2023/10/04 10:34:43;;;;;;;;;;;;;;;25.22;40.71;95875.56;5134409;28;966;-59
2023/10/04 10:37:10;;;;;;;;;;;;;;;24.89;37.69;95876.91;5134388;28;1086;-59
2023/10/04 10:39:45;;;;;;;;;;;;;;;25.04;39.58;95869.13;5134364;28;1913;-59
2023/10/04 10:42:12;;;;;;;;;;;;;;;25.23;39.01;95863.56;5134311;28;1057;-59
2023/10/04 10:44:39;;;;;;;;;;;;;;;25.25;39.16;95864.16;5134369;28;1048;-57
2023/10/04 10:47:10;;;;;;;;;;;;;;;25.37;39.39;95856.81;5134197;28;1029;-56
2023/10/04 10:49:36;;;;;;;;;;;;;;;25.48;38.51;95853.25;5134628;28;1041;-58
2023/10/04 10:52:02;;;;;;;;;;;;;;;25.61;39.14;95846.72;5134365;28;1020;-57
2023/10/04 10:54:28;;;;;;;;;;;;;;;25.59;38.77;95842.53;5134133;28;1020;-57
2023/10/04 10:56:54;;;;;;;;;;;;;;;25.57;39.03;95834.53;5134166;28;1045;-57
2023/10/04 10:59:20;;;;;;;;;;;;;;;25.66;38.99;95835.03;5115835;27;1999;-57
2023/10/04 11:01:46;;;;;;;;;;;;;;;25.65;38.51;95828.72;5137220;27;1027;-57
2023/10/04 11:04:14;;;;;;;;;;;;;;;25.79;39.17;95826.56;5137867;27;1123;-56
2023/10/04 11:06:41;;;;;;;;;;;;;;;25.71;38.46;95829.66;5137871;27;1138;-57
2023/10/04 11:09:09;;;;;;;;;;;;;;;25.63;38.27;95814.44;5137818;27;1032;-57
2023/10/04 11:11:35;;;;;;;;;;;;;;;25.69;38.51;95809.91;5138282;27;961;-57
2023/10/04 11:14:05;;;;;;;;;;;;;;;25.66;38.07;95800.25;5137765;27;1107;-57
2023/10/04 11:16:33;;;;;;;;;;;;;;;25.74;36.17;95812.75;5137693;27;1032;-57
2023/10/04 11:19:04;;;;;;;;;;;;;;;25.66;36.95;95802.97;5137338;27;1992;-57
2023/10/04 11:21:30;;;;;;;;;;;;;;;25.72;36.94;95809.41;5138102;27;1003;-57
2023/10/04 11:23:56;;;;;;;;;;;;;;;25.83;37.63;95808.56;5119633;27;1043;-57
2023/10/04 11:26:22;;;;;;;;;;;;;;;25.82;36.27;95811.53;5137457;27;1031;-57
2023/10/04 11:28:49;;;;;;;;;;;;;;;25.92;37.47;95808.22;5137725;27;1081;-57
2023/10/04 11:31:15;;;;;;;;;;;;;;;25.90;37.00;95809.25;5137276;27;1080;-57
2023/10/04 11:33:48;;;;;;;;;;;;;;;25.95;36.80;95810.47;5137316;27;1040;-57
2023/10/04 11:36:18;;;;;;;;;;;;;;;25.89;35.31;95812.25;5137607;27;981;-57
2023/10/04 11:38:47;;;;;;;;;;;;;;;25.84;36.27;95812.97;5137267;27;2004;-56
2023/10/04 11:41:13;;;;;;;;;;;;;;;25.88;36.60;95807.84;5137129;27;1099;-56
2023/10/04 11:43:39;;;;;;;;;;;;;;;25.84;36.88;95799.28;5137115;27;1032;-57
2023/10/04 11:46:06;;;;;;;;;;;;;;;25.89;36.34;95801.28;5137369;27;973;-57
2023/10/04 11:48:32;;;;;;;;;;;;;;;25.92;36.65;95798.09;5137276;27;1043;-57
2023/10/04 11:50:59;;;;;;;;;;;;;;;25.93;36.77;95788.78;5137235;27;969;-57
2023/10/04 11:53:32;;;;;;;;;;;;;;;25.97;36.22;95791.88;5137123;27;1003;-57
2023/10/04 11:56:06;;;;;;;;;;;;;;;26.02;36.55;95792.00;5136880;27;1056;-57
2023/10/04 11:58:45;;;;;;;;;;;;;;;25.98;35.63;95788.09;5136648;27;1905;-57
2023/10/04 12:01:14;;;;;;;;;;;;;;;26.10;36.25;95783.38;5137064;27;1042;-57
2023/10/04 12:03:40;;;;;;;;;;;;;;;26.24;35.28;95784.75;5136815;27;1079;-57
2023/10/04 12:06:07;;;;;;;;;;;;;;;26.30;34.23;95781.03;5136879;27;1036;-57
2023/10/04 12:08:35;;;;;;;;;;;;;;;26.36;34.26;95784.72;5136593;27;1096;-57
2023/10/04 12:11:12;;;;;;;;;;;;;;;26.41;34.30;95773.03;5136288;27;1099;-57
2023/10/04 12:13:41;;;;;;;;;;;;;;;26.47;34.35;95775.59;5118668;27;1044;-57
2023/10/04 12:16:07;;;;;;;;;;;;;;;26.49;33.85;95772.63;5136516;27;1032;-57
2023/10/04 12:18:34;;;;;;;;;;;;;;;26.45;34.38;95760.47;5118121;27;1914;-58
2023/10/04 12:21:00;;;;;;;;;;;;;;;26.33;34.45;95766.00;5119820;27;2464;-57
2023/10/04 12:23:26;;;;;;;;;;;;;;;26.27;34.77;95769.72;5115779;28;1111;-57
2023/10/04 12:25:53;;;;;;;;;;;;;;;26.22;33.75;95756.78;5116010;28;953;-57
2023/10/04 12:28:20;;;;;;;;;;;;;;;26.07;34.43;95757.31;5097808;28;962;-57
2023/10/04 12:30:48;;;;;;;;;;;;;;;26.03;34.36;95755.31;5115974;28;980;-57
2023/10/04 12:33:14;;;;;;;;;;;;;;;26.04;33.05;95757.78;5115889;28;973;-57
2023/10/04 12:35:40;;;;;;;;;;;;;;;26.10;33.95;95750.50;5115566;28;1033;-57
2023/10/04 12:38:07;;;;;;;;;;;;;;;26.08;33.92;95749.91;5115814;28;1902;-57
2023/10/04 12:40:34;;;;;;;;;;;;;;;26.10;32.14;95745.88;5115686;28;1003;-57
2023/10/04 12:43:01;;;;;;;;;;;;;;;26.19;33.10;95753.69;5115721;28;1038;-57
2023/10/04 12:45:29;;;;;;;;;;;;;;;26.15;32.55;95747.88;5115345;28;1064;-58
2023/10/04 12:47:55;;;;;;;;;;;;;;;26.12;31.87;95748.34;5115646;28;1028;-57
2023/10/04 12:50:22;;;;;;;;;;;;;;;26.08;31.58;95749.91;5115255;28;1036;-57
2023/10/04 12:52:48;;;;;;;;;;;;;;;26.06;32.38;95741.94;5115341;28;1015;-57
2023/10/04 12:55:15;;;;;;;;;;;;;;;26.12;31.57;95742.88;5115054;28;1092;-57
2023/10/04 12:57:41;;;;;;;;;;;;;;;26.18;31.93;95738.31;5097343;28;1051;-57
2023/10/04 13:00:15;;;;;;;;;;;;;;;26.27;31.47;95742.31;5132780;27;1901;-57
2023/10/04 13:02:45;;;;;;;;;;;;;;;26.20;30.97;95728.78;5135752;27;1047;-57
2023/10/04 13:05:13;;;;;;;;;;;;;;;26.25;31.99;95728.84;5135585;27;1029;-57
2023/10/04 13:07:43;;;;;;;;;;;;;;;26.20;31.68;95725.19;5135420;27;1091;-58
2023/10/04 13:10:11;;;;;;;;;;;;;;;26.27;30.75;95734.09;5135844;27;1007;-57